createdAt,value
2018-09-28T00:02:28.325Z,10.85
2018-09-28T00:04:57.369Z,10.98
2018-09-28T00:07:26.424Z,10.99
2018-09-28T00:09:55.809Z,11.01
2018-09-28T00:12:24.850Z,11.00
2018-09-28T00:14:53.897Z,11.02
2018-09-28T00:17:23.173Z,10.91
2018-09-28T00:19:52.236Z,10.88
2018-09-28T00:22:21.276Z,10.97
2018-09-28T00:24:50.609Z,10.92
2018-09-28T00:27:19.782Z,10.78
2018-09-28T00:29:48.816Z,10.63
2018-09-28T00:32:18.004Z,10.57
2018-09-28T00:34:47.057Z,10.79
2018-09-28T00:37:16.114Z,10.71
2018-09-28T00:39:45.500Z,10.83
2018-09-28T00:42:14.580Z,10.84
2018-09-28T00:44:43.659Z,10.82
2018-09-28T00:47:12.852Z,10.82
2018-09-28T00:49:41.888Z,10.78
2018-09-28T00:52:10.917Z,10.84
2018-09-28T00:54:40.249Z,10.88
2018-09-28T00:57:09.317Z,10.93
2018-09-28T00:59:38.373Z,10.83
2018-09-28T01:02:07.571Z,10.69
2018-09-28T01:04:36.626Z,10.78
2018-09-28T01:07:05.693Z,10.61
2018-09-28T01:09:35.041Z,10.69
2018-09-28T01:12:04.087Z,10.77
2018-09-28T01:14:33.138Z,10.86
2018-09-28T01:17:02.331Z,10.88
2018-09-28T01:19:31.367Z,10.76
2018-09-28T01:22:00.519Z,10.71
2018-09-28T01:24:29.841Z,10.92
2018-09-28T01:26:58.870Z,10.81
2018-09-28T01:29:27.917Z,10.79
2018-09-28T01:31:57.101Z,10.91
2018-09-28T01:34:26.220Z,10.83
2018-09-28T01:36:55.247Z,10.92
2018-09-28T01:39:24.608Z,10.98
2018-09-28T01:41:53.638Z,11.11
2018-09-28T01:44:22.685Z,11.13
2018-09-28T01:46:51.909Z,11.22
2018-09-28T01:49:20.926Z,11.30
2018-09-28T01:51:49.976Z,11.33
2018-09-28T01:54:19.413Z,11.42
2018-09-28T01:56:48.426Z,11.34
2018-09-28T01:59:17.468Z,11.31
2018-09-28T02:01:46.906Z,11.33
2018-09-28T02:04:15.957Z,11.01
2018-09-28T02:06:44.992Z,10.94
2018-09-28T02:09:14.179Z,11.02
2018-09-28T02:11:43.203Z,11.13
2018-09-28T02:14:12.246Z,11.04
2018-09-28T02:16:41.725Z,10.98
2018-09-28T02:19:10.770Z,10.94
2018-09-28T02:21:39.840Z,11.00
2018-09-28T02:24:09.049Z,10.86
2018-09-28T02:26:38.063Z,10.36
2018-09-28T02:29:07.096Z,9.94
2018-09-28T02:31:36.422Z,10.01
2018-09-28T02:34:05.451Z,10.24
2018-09-28T02:36:34.474Z,10.34
2018-09-28T02:39:03.880Z,10.40
2018-09-28T02:41:32.903Z,10.50
2018-09-28T02:44:01.932Z,10.46
2018-09-28T02:46:31.301Z,10.43
2018-09-28T02:49:00.337Z,10.64
2018-09-28T02:51:29.344Z,10.27
2018-09-28T02:53:58.505Z,9.95
2018-09-28T02:56:27.513Z,10.23
2018-09-28T02:58:56.534Z,10.31
2018-09-28T03:01:25.856Z,10.02
2018-09-28T03:03:54.894Z,9.73
2018-09-28T03:06:24.051Z,9.42
2018-09-28T03:08:53.116Z,9.29
2018-09-28T03:14:15.450Z,9.83
2018-09-28T03:16:44.471Z,9.87
2018-09-28T03:19:13.491Z,10.02
2018-09-28T03:21:42.666Z,10.19
2018-09-28T03:24:11.762Z,10.25
2018-09-28T03:26:40.783Z,10.34
2018-09-28T03:29:10.123Z,10.34
2018-09-28T03:31:39.140Z,10.36
2018-09-28T03:34:08.214Z,10.18
2018-09-28T03:36:37.393Z,10.22
2018-09-28T03:39:07.786Z,10.41
2018-09-28T03:41:36.828Z,10.35
2018-09-28T03:44:06.596Z,10.38
2018-09-28T03:46:35.848Z,10.45
2018-09-28T03:49:04.901Z,10.51
2018-09-28T03:51:34.287Z,10.49
2018-09-28T03:54:03.337Z,10.58
2018-09-28T03:56:32.353Z,10.65
2018-09-28T03:59:01.563Z,10.71
2018-09-28T04:01:30.581Z,10.78
2018-09-28T04:03:59.595Z,10.77
2018-09-28T04:06:28.928Z,10.82
2018-09-28T04:08:57.962Z,9.99
2018-09-28T04:11:26.944Z,9.98
2018-09-28T04:13:56.119Z,9.93
2018-09-28T04:16:25.114Z,9.88
2018-09-28T04:18:54.130Z,9.92
2018-09-28T04:21:23.301Z,10.09
2018-09-28T04:23:52.339Z,10.20
2018-09-28T04:26:21.361Z,10.19
2018-09-28T04:28:50.807Z,10.00
2018-09-28T04:31:19.814Z,9.45
2018-09-28T04:33:48.809Z,9.31
2018-09-28T04:36:17.982Z,9.30
2018-09-28T04:38:47.014Z,9.34
2018-09-28T04:41:16.025Z,9.29
2018-09-28T04:43:45.354Z,9.05
2018-09-28T04:46:14.353Z,8.89
2018-09-28T04:48:43.354Z,9.03
2018-09-28T04:51:12.784Z,9.06
2018-09-28T04:53:41.809Z,9.35
2018-09-28T04:56:10.811Z,9.42
2018-09-28T04:58:39.974Z,9.41
2018-09-28T05:01:09.040Z,9.36
2018-09-28T05:03:38.097Z,9.32
2018-09-28T05:06:07.280Z,9.29
2018-09-28T05:08:36.356Z,9.29
2018-09-28T05:11:05.449Z,9.57
2018-09-28T05:13:34.711Z,9.72
2018-09-28T05:16:03.813Z,10.06
2018-09-28T05:18:33.328Z,9.81
2018-09-28T05:21:03.055Z,9.81
2018-09-28T05:23:33.319Z,9.57
2018-09-28T05:26:02.578Z,9.48
2018-09-28T05:28:31.904Z,9.82
2018-09-28T05:31:01.426Z,10.21
2018-09-28T05:33:31.039Z,10.30
2018-09-28T05:36:00.807Z,10.54
2018-09-28T05:38:29.956Z,10.70
2018-09-28T05:40:59.534Z,10.51
2018-09-28T05:43:28.839Z,10.33
2018-09-28T05:45:57.977Z,10.31
2018-09-28T05:48:27.059Z,10.37
2018-09-28T05:50:56.538Z,10.35
2018-09-28T05:53:25.685Z,10.40
2018-09-28T05:55:54.805Z,10.48
2018-09-28T05:58:29.258Z,10.45
2018-09-28T06:01:03.489Z,10.57
2018-09-28T06:03:32.784Z,10.56
2018-09-28T06:06:04.524Z,10.67
2018-09-28T06:08:34.021Z,10.62
2018-09-28T06:11:03.104Z,11.06
2018-09-28T06:13:32.316Z,11.02
2018-09-28T06:16:01.581Z,10.95
2018-09-28T06:18:31.059Z,10.81
2018-09-28T06:21:00.130Z,10.76
2018-09-28T06:23:30.989Z,11.03
2018-09-28T06:26:01.487Z,11.60
2018-09-28T06:28:30.717Z,11.48
2018-09-28T06:31:00.330Z,12.13
2018-09-28T06:33:29.587Z,11.72
2018-09-28T06:35:59.517Z,12.01
2018-09-28T06:38:28.977Z,12.00
2018-09-28T06:40:58.728Z,12.19
2018-09-28T06:43:27.791Z,11.80
2018-09-28T06:45:57.161Z,11.77
2018-09-28T06:48:26.200Z,11.70
2018-09-28T06:50:55.233Z,11.98
2018-09-28T06:53:24.383Z,11.93
2018-09-28T06:55:53.416Z,12.25
2018-09-28T06:58:22.462Z,12.44
2018-09-28T07:00:51.850Z,12.38
2018-09-28T07:03:20.909Z,12.25
2018-09-28T07:05:50.090Z,12.75
2018-09-28T07:08:19.358Z,12.68
2018-09-28T07:10:48.426Z,12.43
2018-09-28T07:13:17.523Z,12.76
2018-09-28T07:15:46.965Z,12.26
2018-09-28T07:18:19.514Z,12.14
2018-09-28T07:20:49.085Z,12.33
2018-09-28T07:23:19.644Z,12.31
2018-09-28T07:25:50.975Z,12.64
2018-09-28T07:28:21.398Z,12.98
2018-09-28T07:30:50.580Z,13.10
2018-09-28T07:33:19.945Z,13.17
2018-09-28T07:35:49.070Z,13.44
2018-09-28T07:38:18.418Z,13.54
2018-09-28T07:40:48.605Z,13.75
2018-09-28T07:43:17.710Z,13.62
2018-09-28T07:45:53.240Z,13.95
2018-09-28T07:48:22.902Z,14.18
2018-09-28T07:50:51.983Z,13.98
2018-09-28T07:53:21.161Z,13.84
2018-09-28T07:55:50.714Z,14.30
2018-09-28T07:58:19.859Z,14.47
2018-09-28T08:00:49.029Z,13.88
2018-09-28T08:03:18.469Z,14.47
2018-09-28T08:05:47.658Z,14.44
2018-09-28T08:08:16.792Z,14.60
2018-09-28T08:10:46.525Z,14.67
2018-09-28T08:13:15.938Z,14.72
2018-09-28T08:15:45.392Z,14.55
2018-09-28T08:18:15.259Z,14.34
2018-09-28T08:20:44.896Z,14.71
2018-09-28T08:23:14.693Z,15.26
2018-09-28T08:25:46.049Z,15.10
2018-09-28T08:28:15.242Z,15.08
2018-09-28T08:30:44.342Z,14.97
2018-09-28T08:33:13.817Z,15.58
2018-09-28T08:35:45.948Z,15.50
2018-09-28T08:38:15.432Z,15.48
2018-09-28T08:40:45.119Z,15.69
2018-09-28T08:43:14.629Z,15.82
2018-09-28T08:45:43.881Z,16.15
2018-09-28T08:48:13.052Z,15.92
2018-09-28T08:50:42.169Z,16.16
2018-09-28T08:53:11.668Z,16.67
2018-09-28T08:55:40.783Z,16.40
2018-09-28T08:58:10.074Z,17.07
2018-09-28T09:00:39.547Z,16.77
2018-09-28T09:03:08.671Z,17.39
2018-09-28T09:05:37.749Z,17.55
2018-09-28T09:08:07.447Z,17.91
2018-09-28T09:10:36.586Z,18.19
2018-09-28T09:13:05.739Z,17.43
2018-09-28T09:15:35.217Z,17.35
2018-09-28T09:18:06.490Z,17.34
2018-09-28T09:20:36.324Z,17.84
2018-09-28T09:23:05.481Z,18.51
2018-09-28T09:25:36.218Z,18.49
2018-09-28T09:28:05.623Z,18.45
2018-09-28T09:30:36.193Z,18.51
2018-09-28T09:33:05.245Z,19.00
2018-09-28T09:35:38.733Z,19.04
2018-09-28T09:38:07.813Z,19.00
2018-09-28T09:40:36.893Z,18.89
2018-09-28T09:43:06.412Z,18.87
2018-09-28T09:45:35.574Z,19.06
2018-09-28T09:48:05.117Z,18.47
2018-09-28T09:50:34.574Z,19.26
2018-09-28T09:53:03.838Z,18.73
2018-09-28T09:55:33.678Z,18.58
2018-09-28T09:58:02.913Z,19.04
2018-09-28T10:00:38.788Z,18.71
2018-09-28T10:03:13.535Z,18.76
2018-09-28T10:05:42.909Z,18.97
2018-09-28T10:08:14.147Z,19.11
2018-09-28T10:10:43.948Z,19.30
2018-09-28T10:13:13.068Z,19.62
2018-09-28T10:15:43.342Z,19.64
2018-09-28T10:18:12.837Z,19.82
2018-09-28T10:20:43.173Z,19.79
2018-09-28T10:23:16.266Z,20.00
2018-09-28T10:25:45.403Z,19.90
2018-09-28T10:28:14.677Z,20.83
2018-09-28T10:30:44.194Z,20.89
2018-09-28T10:33:13.407Z,21.17
2018-09-28T10:35:42.592Z,21.21
2018-09-28T10:38:11.921Z,20.79
2018-09-28T10:40:41.368Z,20.67
2018-09-28T10:43:10.446Z,20.70
2018-09-28T10:45:40.066Z,20.64
2018-09-28T10:48:09.297Z,20.96
2018-09-28T10:50:38.387Z,21.07
2018-09-28T10:53:08.007Z,20.71
2018-09-28T10:55:37.171Z,20.77
2018-09-28T10:58:06.347Z,21.41
2018-09-28T11:00:35.818Z,20.73
2018-09-28T11:03:04.964Z,20.89
2018-09-28T11:05:34.081Z,20.55
2018-09-28T11:08:03.521Z,20.84
2018-09-28T11:10:32.675Z,21.53
2018-09-28T11:13:01.810Z,21.77
2018-09-28T11:15:31.377Z,21.80
2018-09-28T11:18:00.993Z,21.24
2018-09-28T11:20:30.179Z,21.91
2018-09-28T11:22:59.686Z,21.78
2018-09-28T11:25:28.825Z,21.69
2018-09-28T11:27:58.005Z,21.22
2018-09-28T11:30:27.467Z,21.14
2018-09-28T11:32:56.582Z,21.12
2018-09-28T11:35:25.707Z,21.50
2018-09-28T11:37:54.915Z,21.53
2018-09-28T11:40:24.097Z,22.06
2018-09-28T11:42:53.337Z,21.92
2018-09-28T11:45:22.575Z,21.75
2018-09-28T11:47:51.724Z,22.01
2018-09-28T11:50:21.285Z,22.47
2018-09-28T11:52:51.640Z,22.45
2018-09-28T11:55:21.865Z,22.68
2018-09-28T11:57:51.151Z,22.38
2018-09-28T12:00:20.674Z,21.55
2018-09-28T12:02:50.298Z,21.41
2018-09-28T12:05:19.541Z,22.08
2018-09-28T12:07:49.100Z,22.26
2018-09-28T12:10:18.477Z,22.44
2018-09-28T12:12:47.721Z,22.41
2018-09-28T12:15:16.910Z,22.34
2018-09-28T12:17:46.016Z,22.16
2018-09-28T12:20:15.182Z,21.99
2018-09-28T12:22:44.380Z,21.78
2018-09-28T12:25:13.470Z,21.69
2018-09-28T12:27:42.598Z,21.90
2018-09-28T12:30:12.056Z,22.67
2018-09-28T12:32:41.261Z,22.40
2018-09-28T12:35:10.363Z,23.23
2018-09-28T12:37:39.863Z,22.43
2018-09-28T12:40:08.988Z,22.58
2018-09-28T12:42:38.112Z,22.86
2018-09-28T12:45:07.514Z,23.19
2018-09-28T12:47:36.562Z,23.17
2018-09-28T12:50:05.720Z,23.05
2018-09-28T12:52:35.135Z,23.20
2018-09-28T12:55:04.244Z,22.84
2018-09-28T12:57:33.411Z,23.15
2018-09-28T13:00:02.926Z,21.94
2018-09-28T13:02:32.083Z,22.70
2018-09-28T13:05:01.210Z,22.53
2018-09-28T13:07:30.660Z,22.27
2018-09-28T13:09:59.765Z,22.44
2018-09-28T13:12:28.953Z,23.08
2018-09-28T13:14:58.285Z,22.67
2018-09-28T13:17:27.318Z,23.37
2018-09-28T13:19:56.397Z,23.12
2018-09-28T13:22:25.548Z,22.72
2018-09-28T13:24:54.658Z,22.43
2018-09-28T13:27:23.766Z,22.08
2018-09-28T13:29:53.361Z,22.71
2018-09-28T13:32:22.505Z,22.78
2018-09-28T13:34:51.702Z,22.07
2018-09-28T13:37:20.946Z,21.38
2018-09-28T13:39:50.061Z,22.02
2018-09-28T13:42:19.184Z,21.96
2018-09-28T13:44:48.391Z,21.50
2018-09-28T13:47:17.565Z,22.05
2018-09-28T13:49:46.652Z,22.71
2018-09-28T13:52:16.067Z,22.59
2018-09-28T13:54:45.554Z,22.03
2018-09-28T13:57:14.601Z,21.65
2018-09-28T13:59:43.824Z,21.92
2018-09-28T14:02:12.954Z,22.10
2018-09-28T14:04:42.195Z,22.45
2018-09-28T14:07:11.896Z,22.36
2018-09-28T14:09:40.861Z,22.31
2018-09-28T14:12:10.009Z,22.62
2018-09-28T14:14:39.258Z,22.61
2018-09-28T14:17:08.439Z,22.79
2018-09-28T14:19:37.659Z,22.57
2018-09-28T14:22:06.882Z,22.40
2018-09-28T14:24:35.982Z,22.23
2018-09-28T14:27:05.084Z,22.42
2018-09-28T14:29:34.369Z,22.68
2018-09-28T14:32:03.552Z,22.47
2018-09-28T14:34:32.787Z,22.55
2018-09-28T14:37:02.340Z,22.51
2018-09-28T14:39:31.464Z,23.00
2018-09-28T14:42:00.679Z,22.82
2018-09-28T14:44:29.851Z,22.99
2018-09-28T14:46:59.043Z,23.35
2018-09-28T14:49:28.780Z,22.73
2018-09-28T14:51:58.220Z,22.52
2018-09-28T14:54:27.387Z,22.40
2018-09-28T14:56:56.507Z,22.25
2018-09-28T14:59:25.775Z,22.03
2018-09-28T15:01:54.866Z,22.24
2018-09-28T15:04:24.038Z,22.11
2018-09-28T15:06:53.547Z,22.33
2018-09-28T15:09:29.633Z,21.95
2018-09-28T15:12:03.062Z,22.37
2018-09-28T15:14:32.207Z,22.23
2018-09-28T15:17:01.392Z,22.21
2018-09-28T15:19:30.806Z,22.17
2018-09-28T15:21:59.936Z,22.14
2018-09-28T15:24:29.065Z,21.56
2018-09-28T15:26:58.519Z,21.23
2018-09-28T15:29:27.645Z,20.71
2018-09-28T15:31:56.789Z,20.45
2018-09-28T15:34:26.246Z,20.08
2018-09-28T15:36:55.367Z,19.98
2018-09-28T15:39:24.540Z,19.97
2018-09-28T15:41:56.202Z,20.10
2018-09-28T15:44:26.238Z,20.02
2018-09-28T15:46:55.441Z,20.20
2018-09-28T15:49:24.609Z,20.25
2018-09-28T15:51:53.740Z,20.15
2018-09-28T15:54:22.929Z,20.18
2018-09-28T15:56:52.475Z,20.12
2018-09-28T15:59:22.142Z,20.22
2018-09-28T16:01:51.322Z,20.14
2018-09-28T16:04:21.161Z,20.06
2018-09-28T16:06:52.982Z,20.03
2018-09-28T16:11:50.407Z,20.01
2018-09-28T16:14:19.955Z,20.04
2018-09-28T16:16:49.522Z,20.07
2018-09-28T16:21:47.527Z,19.87
2018-09-28T16:24:16.750Z,19.87
2018-09-28T16:26:46.222Z,19.79
2018-09-28T16:29:15.721Z,19.78
2018-09-28T16:31:45.624Z,19.80
2018-09-28T16:34:14.887Z,19.81
2018-09-28T16:36:44.061Z,19.76
2018-09-28T16:39:13.311Z,19.72
2018-09-28T16:41:43.176Z,19.73
2018-09-28T16:44:13.324Z,19.71
2018-09-28T16:46:42.426Z,19.66
2018-09-28T16:49:12.536Z,19.66
2018-09-28T16:51:41.734Z,19.66
2018-09-28T16:54:11.158Z,19.58
2018-09-28T16:56:41.671Z,19.65
2018-09-28T16:59:10.775Z,19.50
2018-09-28T17:01:39.964Z,19.52
2018-09-28T17:04:09.145Z,19.48
2018-09-28T17:06:39.612Z,19.50
2018-09-28T17:09:10.049Z,19.57
2018-09-28T17:11:40.973Z,19.52
2018-09-28T17:14:10.125Z,19.28
2018-09-28T17:16:40.301Z,19.22
2018-09-28T17:19:10.414Z,19.24
2018-09-28T17:21:39.567Z,19.18
2018-09-28T17:24:08.722Z,19.37
2018-09-28T17:26:38.231Z,18.95
2018-09-28T17:29:07.370Z,18.85
2018-09-28T17:31:36.575Z,18.95
2018-09-28T17:34:06.030Z,18.70
2018-09-28T17:36:35.563Z,18.49
2018-09-28T17:39:07.261Z,18.73
2018-09-28T17:41:36.442Z,18.52
2018-09-28T17:44:05.878Z,18.65
2018-09-28T17:46:35.893Z,18.61
2018-09-28T17:49:06.182Z,18.78
2018-09-28T17:51:36.295Z,18.82
2018-09-28T17:54:05.506Z,18.75
2018-09-28T17:56:34.703Z,18.47
2018-09-28T17:59:04.015Z,18.42
2018-09-28T18:01:33.186Z,18.57
2018-09-28T18:04:02.709Z,18.70
2018-09-28T18:06:31.886Z,18.81
2018-09-28T18:09:01.026Z,19.04
2018-09-28T18:11:31.434Z,19.08
2018-09-28T18:14:00.738Z,18.98
2018-09-28T18:16:31.186Z,19.09
2018-09-28T18:19:00.720Z,19.19
2018-09-28T18:21:29.821Z,19.09
2018-09-28T18:23:58.998Z,19.16
2018-09-28T18:26:28.239Z,19.05
2018-09-28T18:28:59.282Z,19.13
2018-09-28T18:31:28.437Z,19.05
2018-09-28T18:34:00.363Z,19.28
2018-09-28T18:36:29.482Z,18.81
2018-09-28T18:38:59.121Z,18.62
2018-09-28T18:41:28.598Z,18.63
2018-09-28T18:43:58.103Z,18.55
2018-09-28T18:46:27.437Z,18.57
2018-09-28T18:48:57.031Z,18.58
2018-09-28T18:51:26.137Z,18.58
2018-09-28T18:53:55.813Z,18.42
2018-09-28T18:56:25.414Z,18.37
2018-09-28T18:58:54.663Z,18.40
2018-09-28T19:01:24.733Z,18.35
2018-09-28T19:03:54.143Z,18.36
2018-09-28T19:06:23.236Z,18.22
2018-09-28T19:08:52.783Z,18.07
2018-09-28T19:11:22.501Z,17.81
2018-09-28T19:13:52.267Z,17.87
2018-09-28T19:16:22.792Z,17.84
2018-09-28T19:18:51.990Z,17.78
2018-09-28T19:21:21.156Z,17.73
2018-09-28T19:23:50.369Z,17.57
2018-09-28T19:26:19.761Z,17.50
2018-09-28T19:28:49.621Z,17.61
2018-09-28T19:31:19.414Z,17.48
2018-09-28T19:33:48.869Z,17.46
2018-09-28T19:36:18.315Z,17.57
2018-09-28T19:38:47.533Z,17.31
2018-09-28T19:41:17.345Z,17.33
2018-09-28T19:43:46.504Z,17.24
2018-09-28T19:46:16.715Z,17.32
2018-09-28T19:48:47.078Z,17.16
2018-09-28T19:51:16.270Z,17.21
2018-09-28T19:53:47.361Z,17.09
2018-09-28T19:56:16.819Z,16.98
2018-09-28T19:58:45.935Z,17.13
2018-09-28T20:01:15.723Z,17.04
2018-09-28T20:03:45.261Z,16.97
2018-09-28T20:06:14.448Z,16.91
2018-09-28T20:08:44.024Z,17.06
2018-09-28T20:11:13.221Z,16.99
2018-09-28T20:13:42.341Z,16.96
2018-09-28T20:16:11.460Z,16.94
2018-09-28T20:18:40.983Z,16.99
2018-09-28T20:21:10.137Z,16.94
2018-09-28T20:23:39.291Z,16.97
2018-09-28T20:26:08.478Z,16.92
2018-09-28T20:28:37.790Z,16.85
2018-09-28T20:31:08.009Z,16.56
2018-09-28T20:33:37.543Z,16.50
2018-09-28T20:36:06.322Z,16.51
2018-09-28T20:38:35.491Z,16.41
2018-09-28T20:41:05.253Z,16.41
2018-09-28T20:43:34.754Z,16.29
2018-09-28T20:46:04.048Z,16.43
2018-09-28T20:48:33.501Z,16.47
2018-09-28T20:51:02.637Z,16.29
2018-09-28T20:53:31.766Z,16.37
2018-09-28T20:56:00.956Z,16.08
2018-09-28T20:58:30.125Z,16.10
2018-09-28T21:00:59.304Z,16.12
2018-09-28T21:03:28.742Z,16.22
2018-09-28T21:05:57.860Z,16.17
2018-09-28T21:08:26.980Z,16.01
2018-09-28T21:10:56.175Z,15.96
2018-09-28T21:13:25.206Z,16.03
2018-09-28T21:15:54.333Z,16.07
2018-09-28T21:18:23.465Z,16.39
2018-09-28T21:20:52.554Z,16.31
2018-09-28T21:23:21.690Z,16.13
2018-09-28T21:25:51.176Z,15.99
2018-09-28T21:28:20.331Z,16.09
2018-09-28T21:30:49.528Z,16.11
2018-09-28T21:33:18.683Z,16.22
2018-09-28T21:35:47.838Z,16.04
2018-09-28T21:38:16.943Z,16.05
2018-09-28T21:40:46.379Z,16.16
2018-09-28T21:43:15.472Z,16.32
2018-09-28T21:45:44.583Z,16.40
2018-09-28T21:48:14.092Z,16.46
2018-09-28T21:50:43.217Z,16.47
2018-09-28T21:53:12.279Z,16.31
2018-09-28T21:55:41.427Z,16.28
2018-09-28T21:58:10.536Z,16.26
2018-09-28T22:00:40.207Z,16.16
2018-09-28T22:03:10.168Z,16.10
2018-09-28T22:05:39.681Z,16.19
2018-09-28T22:08:09.249Z,16.28
2018-09-28T22:10:39.088Z,16.61
2018-09-28T22:13:08.560Z,16.65
2018-09-28T22:15:37.974Z,16.59
2018-09-28T22:18:07.478Z,16.71
2018-09-28T22:20:36.944Z,16.68
2018-09-28T22:23:06.775Z,16.76
2018-09-28T22:25:36.566Z,16.95
2018-09-28T22:28:06.048Z,16.95
2018-09-28T22:30:35.616Z,16.71
2018-09-28T22:33:05.154Z,16.51
2018-09-28T22:35:34.705Z,16.44
2018-09-28T22:38:04.173Z,16.54
2018-09-28T22:40:34.010Z,16.32
2018-09-28T22:43:03.464Z,16.29
2018-09-28T22:45:32.893Z,16.04
2018-09-28T22:48:02.402Z,15.97
2018-09-28T22:50:31.831Z,15.98
2018-09-28T22:53:01.258Z,15.96
2018-09-28T22:55:31.033Z,15.92
2018-09-28T22:58:00.445Z,15.94
2018-09-28T23:00:29.865Z,15.93
2018-09-28T23:02:59.697Z,15.85
2018-09-28T23:05:29.145Z,15.85
2018-09-28T23:07:58.738Z,15.75
2018-09-28T23:10:28.533Z,15.64
2018-09-28T23:12:57.945Z,15.52
2018-09-28T23:15:27.374Z,15.34
2018-09-28T23:17:56.867Z,15.37
2018-09-28T23:20:26.075Z,15.22
2018-09-28T23:22:55.123Z,15.29
2018-09-28T23:25:24.517Z,15.23
2018-09-28T23:27:53.568Z,15.21
2018-09-28T23:30:22.598Z,15.18
2018-09-28T23:32:52.002Z,15.19
2018-09-28T23:35:21.077Z,15.18
2018-09-28T23:37:50.122Z,15.26
2018-09-28T23:40:19.627Z,15.27
2018-09-28T23:42:48.652Z,15.37
2018-09-28T23:45:17.693Z,15.33
2018-09-28T23:47:46.776Z,15.28
2018-09-28T23:50:15.813Z,15.24
2018-09-28T23:52:44.883Z,15.31
2018-09-28T23:55:13.989Z,15.39
2018-09-28T23:57:43.011Z,15.36
